This is the latest recevied weather packets stored in our database for station/object 9M4RBN-3. If no packets are shown the sender has not sent any weather packets the latest 10 day(s).
| Time | Temp. | Humidity | Pressure | Rain* | Wind** | Luminosity | Snow |
|---|---|---|---|---|---|---|---|
| 1787940248 | 27.78° C | 68% | 1016.6 hPa | - | - | - | - |
| 1787939348 | 27.78° C | 68% | 1017 hPa | - | - | - | - |
| 1787938448 | 27.22° C | 67% | 1017.3 hPa | - | - | - | - |
| 1787937548 | 27.22° C | 66% | 1017.5 hPa | - | - | - | - |
| 1787936648 | 27.22° C | 64% | 1017.9 hPa | - | - | - | - |
| 1787935748 | 26.67° C | 63% | 1018 hPa | - | - | - | - |
| 1787934848 | 26.11° C | 59% | 1018.1 hPa | - | - | - | - |
| 1787933948 | 25.56° C | 54% | 1018.4 hPa | - | - | - | - |
| 1787933047 | 24.44° C | 46% | 1018.5 hPa | - | - | - | - |
| 1787932147 | 25° C | 46% | 1018.7 hPa | - | - | - | - |
| 1787931249 | 25° C | 46% | 1018.7 hPa | - | - | - | - |
| 1787930349 | 25° C | 47% | 1018.8 hPa | - | - | - | - |
| 1787929449 | 25° C | 47% | 1018.5 hPa | - | - | - | - |
| 1787928549 | 25° C | 47% | 1018.4 hPa | - | - | - | - |
| 1787927649 | 25.56° C | 47% | 1018.1 hPa | - | - | - | - |
| 1787926749 | 25.56° C | 47% | 1018 hPa | - | - | - | - |
| 1787925849 | 25.56° C | 48% | 1017.7 hPa | - | - | - | - |
| 1787924949 | 25.56° C | 48% | 1017.4 hPa | - | - | - | - |
| 1787924048 | 25.56° C | 47% | 1017.2 hPa | - | - | - | - |
| 1787923148 | 26.11° C | 48% | 1016.7 hPa | - | - | - | - |
| 1787922248 | 26.11° C | 50% | 1016.8 hPa | - | - | - | - |
| 1787921348 | 26.11° C | 52% | 1016.6 hPa | - | - | - | - |
| 1787920448 | 26.11° C | 55% | 1016.5 hPa | - | - | - | - |
| 1787919548 | 26.67° C | 52% | 1016.4 hPa | - | - | - | - |
| 1787918648 | 26.67° C | 45% | 1016.4 hPa | - | - | - | - |
* Rain since midnight (hover to see other rain measurements)
** Current wind speed in m/s (hover to see current wind gust speed)